Dolan Springs, AZ (86441)

11:08 AM MST on February 19, 2017 (GMT -0700)
MAV179 | | Change Station

Elev 3493 ft 35.65 °N, 114.21 °W | Updated 3 minutes ago

Overcast
Overcast
48.0 °F
Feels Like 48 °F
N
2.0
Wind Variable Wind from NE
Gusts 5.0 mph

Today
High -- | Low -- °F
--% Chance of Precip.
Yesterday
High -- | Low -- °F
Precip. -- in
Pressure 29.78 in
Visibility 10.0 miles
Clouds Few 1000 ft
Mostly Cloudy 1500 ft
Overcast 3500 ft
Windchill 48 °F
Dew Point 46 °F
Humidity 93%
Rainfall 0.48 in
Snow Depth Not available.
7:18 AM 6:23 PM
Last Quarter, 41% visible
METAR KIGM 191751Z AUTO 11006KT 10SM FEW010 BKN015 OVC035 09/06 A2988 RMK AO2 RAE23 SLP084 P0000 60001 T00890056 10089 20039 51020
Pressure 29.78 in
Visibility 10.0 miles
Clouds Few 1000 ft
Mostly Cloudy 1500 ft
Overcast 3500 ft
Windchill 48 °F
Dew Point 46 °F
Humidity 93%
Rainfall 0.48 in
Snow Depth Not available.
7:18 AM 6:23 PM
Last Quarter, 41% visible
METAR KIGM 191751Z AUTO 11006KT 10SM FEW010 BKN015 OVC035 09/06 A2988 RMK AO2 RAE23 SLP084 P0000 60001 T00890056 10089 20039 51020

Get Your Daily Forecast Email!

Thanks for signing up!

Be on the lookout for a verification email in your inbox.

You'll start receiving the daily forecast at 8 AM.

×

10-Day Weather Forecast

Almanac

Astronomy

Feb. 19, 2017 Rise Set
Actual Time
Civil Twilight
Nautical Twilight
Astronomical Twilight
Moon
Length of Visible Light
Length of Day
Tomorrow will be .
, % of the Moon is Illuminated

Today's Extremes

State Highs State Lows

Community

WunderPhotos

Upload Photos

1,962,540 photos uploaded!

WunderBlog® & News

Nearby

Air Quality

  Air Quality AQ Index Pollutant
Not available.

Snow Depth

Station Depth Elevation

Earthquake Activity

City Distance Mag. Time & Date
Minimum magnitude displayed is 2.5.

Coastal Water Temperatures

Place Temperature

Stations

Nearby Weather Stations

Station Location Temp. Windchill Dew Point Humidity Wind Precip. Elev Updated Type
                   

Watches & Warnings

There are currently no watches in effect.